sensor_id;sensor_type;location;lat;lon;timestamp;temperature;humidity
21189;DHT22;39071;52.420;20.896;2023-05-23T00:00:57;10.40;99.90
21189;DHT22;39071;52.420;20.896;2023-05-23T00:03:24;10.40;99.90
21189;DHT22;39071;52.420;20.896;2023-05-23T00:05:50;10.30;99.90
21189;DHT22;39071;52.420;20.896;2023-05-23T00:08:16;10.30;99.90
21189;DHT22;39071;52.420;20.896;2023-05-23T00:10:43;10.30;97.50
21189;DHT22;39071;52.420;20.896;2023-05-23T00:13:08;10.20;1.00
21189;DHT22;39071;52.420;20.896;2023-05-23T00:15:40;10.20;1.00
21189;DHT22;39071;52.420;20.896;2023-05-23T00:18:06;10.20;1.00
21189;DHT22;39071;52.420;20.896;2023-05-23T00:20:34;10.10;73.90
21189;DHT22;39071;52.420;20.896;2023-05-23T00:23:01;11.00;31.60
21189;DHT22;39071;52.420;20.896;2023-05-23T00:25:28;10.10;99.90
21189;DHT22;39071;52.420;20.896;2023-05-23T00:27:59;10.10;99.90
21189;DHT22;39071;52.420;20.896;2023-05-23T00:30:28;10.00;99.90
21189;DHT22;39071;52.420;20.896;2023-05-23T00:32:54;10.00;99.90
21189;DHT22;39071;52.420;20.896;2023-05-23T00:35:20;10.00;99.90
21189;DHT22;39071;52.420;20.896;2023-05-23T00:37:46;9.90;99.90
21189;DHT22;39071;52.420;20.896;2023-05-23T00:40:14;10.00;99.90
21189;DHT22;39071;52.420;20.896;2023-05-23T00:42:40;9.90;99.90
21189;DHT22;39071;52.420;20.896;2023-05-23T00:45:06;9.80;99.90
21189;DHT22;39071;52.420;20.896;2023-05-23T00:47:32;9.80;99.90
21189;DHT22;39071;52.420;20.896;2023-05-23T00:49:58;9.80;1.00
21189;DHT22;39071;52.420;20.896;2023-05-23T00:52:24;9.80;1.00
21189;DHT22;39071;52.420;20.896;2023-05-23T00:54:50;9.80;1.00
21189;DHT22;39071;52.420;20.896;2023-05-23T00:57:16;9.80;99.90
21189;DHT22;39071;52.420;20.896;2023-05-23T00:59:42;9.70;99.90
21189;DHT22;39071;52.420;20.896;2023-05-23T01:02:09;9.70;1.00
21189;DHT22;39071;52.420;20.896;2023-05-23T01:04:37;9.70;99.90
21189;DHT22;39071;52.420;20.896;2023-05-23T01:07:03;9.60;99.90
21189;DHT22;39071;52.420;20.896;2023-05-23T01:09:30;9.60;1.00
21189;DHT22;39071;52.420;20.896;2023-05-23T01:12:09;9.70;1.00
21189;DHT22;39071;52.420;20.896;2023-05-23T01:14:50;9.60;1.00
21189;DHT22;39071;52.420;20.896;2023-05-23T01:17:25;9.60;1.00
21189;DHT22;39071;52.420;20.896;2023-05-23T01:19:57;9.60;1.00
21189;DHT22;39071;52.420;20.896;2023-05-23T01:28:18;9.60;1.00
21189;DHT22;39071;52.420;20.896;2023-05-23T01:30:45;9.60;1.00
21189;DHT22;39071;52.420;20.896;2023-05-23T01:33:14;9.50;1.00
21189;DHT22;39071;52.420;20.896;2023-05-23T01:35:42;9.50;99.90
21189;DHT22;39071;52.420;20.896;2023-05-23T01:38:08;9.40;99.90
21189;DHT22;39071;52.420;20.896;2023-05-23T01:40:34;9.40;1.00
21189;DHT22;39071;52.420;20.896;2023-05-23T01:43:00;9.40;1.00
21189;DHT22;39071;52.420;20.896;2023-05-23T01:45:28;9.40;1.00
21189;DHT22;39071;52.420;20.896;2023-05-23T01:47:55;9.40;1.00
21189;DHT22;39071;52.420;20.896;2023-05-23T01:50:22;9.40;1.00
21189;DHT22;39071;52.420;20.896;2023-05-23T01:52:49;9.40;1.00
21189;DHT22;39071;52.420;20.896;2023-05-23T01:55:16;9.40;1.00
21189;DHT22;39071;52.420;20.896;2023-05-23T01:57:57;9.40;1.00
21189;DHT22;39071;52.420;20.896;2023-05-23T02:00:24;9.40;1.00
21189;DHT22;39071;52.420;20.896;2023-05-23T02:02:50;9.40;1.00
21189;DHT22;39071;52.420;20.896;2023-05-23T02:05:15;9.30;1.00
21189;DHT22;39071;52.420;20.896;2023-05-23T02:07:41;9.20;1.00
21189;DHT22;39071;52.420;20.896;2023-05-23T02:10:08;9.10;1.00
21189;DHT22;39071;52.420;20.896;2023-05-23T02:12:34;9.10;1.00
21189;DHT22;39071;52.420;20.896;2023-05-23T02:15:00;9.10;99.90
21189;DHT22;39071;52.420;20.896;2023-05-23T02:17:26;9.20;99.90
21189;DHT22;39071;52.420;20.896;2023-05-23T02:19:51;9.20;99.90
21189;DHT22;39071;52.420;20.896;2023-05-23T02:22:18;9.10;62.10
21189;DHT22;39071;52.420;20.896;2023-05-23T02:24:48;9.10;1.00
21189;DHT22;39071;52.420;20.896;2023-05-23T02:27:14;9.10;1.00
21189;DHT22;39071;52.420;20.896;2023-05-23T02:29:40;9.00;1.00
21189;DHT22;39071;52.420;20.896;2023-05-23T02:32:06;9.00;39.50
21189;DHT22;39071;52.420;20.896;2023-05-23T02:34:31;9.00;1.00
21189;DHT22;39071;52.420;20.896;2023-05-23T02:36:57;9.00;1.00
21189;DHT22;39071;52.420;20.896;2023-05-23T02:39:23;9.00;1.00
21189;DHT22;39071;52.420;20.896;2023-05-23T02:41:48;9.00;1.00
21189;DHT22;39071;52.420;20.896;2023-05-23T02:44:14;9.00;1.00
21189;DHT22;39071;52.420;20.896;2023-05-23T02:46:40;9.00;1.00
21189;DHT22;39071;52.420;20.896;2023-05-23T02:49:06;9.00;1.00
21189;DHT22;39071;52.420;20.896;2023-05-23T02:51:31;9.10;1.00
21189;DHT22;39071;52.420;20.896;2023-05-23T02:53:57;9.10;1.00
21189;DHT22;39071;52.420;20.896;2023-05-23T02:56:23;9.10;1.00
21189;DHT22;39071;52.420;20.896;2023-05-23T02:58:48;9.10;1.00
21189;DHT22;39071;52.420;20.896;2023-05-23T03:01:14;9.20;1.00
21189;DHT22;39071;52.420;20.896;2023-05-23T03:03:40;9.20;1.00
21189;DHT22;39071;52.420;20.896;2023-05-23T03:06:06;9.20;1.00
21189;DHT22;39071;52.420;20.896;2023-05-23T03:08:35;9.20;1.00
21189;DHT22;39071;52.420;20.896;2023-05-23T03:11:01;9.30;1.00
21189;DHT22;39071;52.420;20.896;2023-05-23T03:13:27;9.30;1.00
21189;DHT22;39071;52.420;20.896;2023-05-23T03:15:53;9.40;1.00
21189;DHT22;39071;52.420;20.896;2023-05-23T03:18:18;9.40;1.00
21189;DHT22;39071;52.420;20.896;2023-05-23T03:20:44;9.50;1.00
21189;DHT22;39071;52.420;20.896;2023-05-23T03:23:10;9.60;1.00
21189;DHT22;39071;52.420;20.896;2023-05-23T03:25:35;9.70;70.50
21189;DHT22;39071;52.420;20.896;2023-05-23T03:28:01;10.00;1.00
21189;DHT22;39071;52.420;20.896;2023-05-23T03:30:27;10.60;99.90
21189;DHT22;39071;52.420;20.896;2023-05-23T03:32:53;11.50;1.00
21189;DHT22;39071;52.420;20.896;2023-05-23T03:35:18;12.40;1.00
21189;DHT22;39071;52.420;20.896;2023-05-23T03:37:44;13.10;99.90
21189;DHT22;39071;52.420;20.896;2023-05-23T03:40:10;13.70;99.90
21189;DHT22;39071;52.420;20.896;2023-05-23T03:42:37;14.40;1.00
21189;DHT22;39071;52.420;20.896;2023-05-23T03:45:03;15.10;1.00
21189;DHT22;39071;52.420;20.896;2023-05-23T03:47:29;15.80;1.00
21189;DHT22;39071;52.420;20.896;2023-05-23T03:49:55;16.50;1.00
21189;DHT22;39071;52.420;20.896;2023-05-23T03:52:21;17.50;1.00
21189;DHT22;39071;52.420;20.896;2023-05-23T03:54:47;18.30;1.00
21189;DHT22;39071;52.420;20.896;2023-05-23T03:57:12;19.50;1.00
21189;DHT22;39071;52.420;20.896;2023-05-23T03:59:38;20.50;1.00
21189;DHT22;39071;52.420;20.896;2023-05-23T04:02:04;21.20;1.00
21189;DHT22;39071;52.420;20.896;2023-05-23T04:04:30;21.90;1.00
21189;DHT22;39071;52.420;20.896;2023-05-23T04:06:58;22.40;1.00
21189;DHT22;39071;52.420;20.896;2023-05-23T04:09:23;23.10;1.00
21189;DHT22;39071;52.420;20.896;2023-05-23T04:11:50;23.50;1.00
21189;DHT22;39071;52.420;20.896;2023-05-23T04:14:16;24.20;1.00
21189;DHT22;39071;52.420;20.896;2023-05-23T04:16:42;24.90;1.00
21189;DHT22;39071;52.420;20.896;2023-05-23T04:19:09;25.70;1.00
21189;DHT22;39071;52.420;20.896;2023-05-23T04:21:35;26.40;1.00
21189;DHT22;39071;52.420;20.896;2023-05-23T04:24:01;26.90;1.00
21189;DHT22;39071;52.420;20.896;2023-05-23T04:26:27;27.10;1.00
21189;DHT22;39071;52.420;20.896;2023-05-23T04:28:53;27.40;1.00
21189;DHT22;39071;52.420;20.896;2023-05-23T04:31:22;27.20;1.00
21189;DHT22;39071;52.420;20.896;2023-05-23T04:33:48;27.30;1.00
21189;DHT22;39071;52.420;20.896;2023-05-23T04:36:14;27.50;1.00
21189;DHT22;39071;52.420;20.896;2023-05-23T04:38:40;27.30;1.00
